Alterosa, Brazil
Current Conditions -  °F | °C
As of 6:00 AM on Friday 28 Nov 2014 (Local Time) from SBYS Reporting Station
Overcast Overcast  
Wind Chill: 72°   Ceiling: 2000
Heat Index: 72°   Visibility: 6mi
Dew Point: 64°   Wind: 8mph
Humidity: 78%   Direction: 200°SSW
Pressure: 29.94"   Gusts: NA
Location:  21.25°S, 46.14°W
Report Text: SBYS 280800Z 20007KT 9999 OVC020 22/18 Q1014
Loading
Personal Weather Stations






























Interactive Weather Map New forecast layout! Learn more

10-Day Weather Forecast

Advertisements
Track Severe Weather on mobile